Time;durP1;ratioP1;P1;durP2;ratioP2;P2;SDS_P1;SDS_P2;PMS_P1;PMS_P2;Temp;Humidity;BMP_temperature;BMP_pressure;BME280_temperature;BME280_humidity;BME280_pressure;Samples;Min_cycle;Max_cycle;Signal;HPM_P1;HPM_P2
2022/05/09 00:02:59;;;;;;;7.27;5.13;;;11.00;99.90;;;;;;6306050;28;20255;-51
2022/05/09 00:06:02;;;;;;;6.77;4.80;;;10.90;99.90;;;;;;6302534;28;20445;-51
2022/05/09 00:09:05;;;;;;;7.23;4.83;;;10.90;99.90;;;;;;6306957;27;20511;-52
2022/05/09 00:12:09;;;;;;;5.90;4.47;;;10.80;99.90;;;;;;6300357;28;21828;-52
2022/05/09 00:15:14;;;;;;;6.30;4.27;;;10.70;99.90;;;;;;6302560;28;20316;-53
2022/05/09 00:18:19;;;;;;;8.63;4.63;;;10.70;99.90;;;;;;6295053;28;20320;-53
2022/05/09 00:21:22;;;;;;;9.20;5.03;;;10.60;99.90;;;;;;6277629;28;20255;-53
2022/05/09 00:24:25;;;;;;;6.57;4.50;;;10.60;99.90;;;;;;6277111;28;20514;-48
2022/05/09 00:27:28;;;;;;;7.30;4.90;;;10.60;99.90;;;;;;6274584;28;20359;-51
2022/05/09 00:30:34;;;;;;;7.90;4.53;;;10.60;99.90;;;;;;6278093;28;20862;-51
2022/05/09 00:33:52;;;;;;;5.73;4.53;;;10.60;99.90;;;;;;6290334;28;20233;-51
2022/05/09 00:36:55;;;;;;;8.97;4.80;;;10.50;99.90;;;;;;6319772;28;20357;-52
2022/05/09 00:39:58;;;;;;;10.43;5.03;;;10.40;99.90;;;;;;6326282;27;20234;-52
2022/05/09 00:43:02;;;;;;;8.73;5.13;;;10.40;99.90;;;;;;6296843;28;20492;-52
2022/05/09 00:46:05;;;;;;;8.47;4.87;;;10.40;99.90;;;;;;6279785;28;20241;-52
2022/05/09 00:49:18;;;;;;;8.73;4.70;;;10.40;99.90;;;;;;6279377;28;20721;-51
2022/05/09 00:52:27;;;;;;;9.27;5.00;;;10.30;99.90;;;;;;6294766;28;20240;-51
2022/05/09 00:55:42;;;;;;;9.33;5.30;;;10.30;99.90;;;;;;6299811;28;20676;-51
2022/05/09 00:58:52;;;;;;;7.13;5.00;;;10.30;99.90;;;;;;6300891;28;20240;-52
2022/05/09 01:01:58;;;;;;;7.43;5.50;;;10.20;99.90;;;;;;6296018;28;20604;-52
2022/05/09 01:05:07;;;;;;;9.33;4.83;;;10.20;99.90;;;;;;6293793;28;20244;-52
2022/05/09 01:08:10;;;;;;;10.03;5.37;;;10.10;99.90;;;;;;6302339;28;20245;-51
2022/05/09 01:11:25;;;;;;;8.83;5.90;;;10.10;99.90;;;;;;6299651;28;20237;-51
2022/05/09 01:14:30;;;;;;;11.97;5.20;;;10.10;99.90;;;;;;6299764;28;20251;-52
2022/05/09 01:17:34;;;;;;;6.30;5.13;;;10.10;99.90;;;;;;6277764;28;20294;-52
2022/05/09 01:20:40;;;;;;;9.97;4.70;;;10.00;99.90;;;;;;6277840;28;20427;-52
2022/05/09 01:23:44;;;;;;;11.07;5.10;;;9.90;99.90;;;;;;6291788;28;20233;-52
2022/05/09 01:26:50;;;;;;;6.50;4.97;;;10.00;99.90;;;;;;6321087;28;20281;-52
2022/05/09 01:30:00;;;;;;;4.83;4.40;;;9.90;99.90;;;;;;6325919;28;20220;-52
2022/05/09 01:33:12;;;;;;;11.83;5.43;;;9.90;99.90;;;;;;6294752;28;20239;-52
2022/05/09 01:36:18;;;;;;;8.37;4.70;;;9.90;99.90;;;;;;6296784;28;20328;-51
2022/05/09 01:39:23;;;;;;;9.47;5.23;;;9.80;99.90;;;;;;6285208;28;20765;-50
2022/05/09 01:42:36;;;;;;;6.07;4.60;;;9.80;99.90;;;;;;6299572;28;20297;-51
2022/05/09 01:45:39;;;;;;;8.70;4.80;;;9.80;99.90;;;;;;6306845;28;20236;-52
2022/05/09 01:52:06;;;;;;;6.13;5.17;;;9.70;99.90;;;;;;6292908;28;20330;-54
2022/05/09 01:55:11;;;;;;;5.73;4.50;;;9.60;99.90;;;;;;6293552;28;20278;-51
2022/05/09 01:58:13;;;;;;;16.17;5.57;;;9.60;99.90;;;;;;6273645;28;20243;-53
2022/05/09 02:01:19;;;;;;;12.83;5.30;;;9.70;99.90;;;;;;6276012;28;20330;-53
2022/05/09 02:04:22;;;;;;;8.83;5.53;;;9.60;99.90;;;;;;6292347;28;20228;-52
2022/05/09 02:07:26;;;;;;;9.57;5.70;;;9.60;99.90;;;;;;6295452;28;20360;-52
2022/05/09 02:10:30;;;;;;;7.40;5.57;;;9.60;99.90;;;;;;6295840;28;20804;-51
2022/05/09 02:13:33;;;;;;;8.60;5.93;;;9.60;99.90;;;;;;6300999;28;20315;-53
2022/05/09 02:16:37;;;;;;;11.17;5.53;;;9.60;99.90;;;;;;6290328;28;20604;-51
2022/05/09 02:19:42;;;;;;;13.37;5.63;;;9.50;99.90;;;;;;6279611;28;20756;-52
2022/05/09 02:22:45;;;;;;;14.80;5.93;;;9.50;99.90;;;;;;6279798;28;20844;-52
2022/05/09 02:25:49;;;;;;;7.40;5.30;;;9.50;99.90;;;;;;6298136;28;20290;-46
2022/05/09 02:28:51;;;;;;;12.40;5.67;;;9.50;99.90;;;;;;6290649;28;20613;-50
2022/05/09 02:31:55;;;;;;;11.27;5.80;;;9.50;99.90;;;;;;6297675;28;20267;-52
2022/05/09 02:34:58;;;;;;;9.30;5.53;;;9.50;99.90;;;;;;6305158;28;20838;-51
2022/05/09 02:38:02;;;;;;;12.47;5.60;;;9.50;99.90;;;;;;6283211;28;20233;-52
2022/05/09 02:41:06;;;;;;;8.37;5.20;;;9.50;99.90;;;;;;6306231;28;20236;-52
2022/05/09 02:44:16;;;;;;;8.17;5.80;;;9.40;99.90;;;;;;6270373;28;20434;-52
2022/05/09 02:47:20;;;;;;;7.30;5.60;;;9.40;99.90;;;;;;6290952;28;20300;-52
2022/05/09 02:50:24;;;;;;;8.07;6.03;;;9.40;99.90;;;;;;6279745;28;20338;-48
2022/05/09 02:53:26;;;;;;;7.57;5.83;;;9.40;99.90;;;;;;6279424;28;20488;-52
2022/05/09 02:56:31;;;;;;;7.73;5.80;;;9.30;99.90;;;;;;6279037;28;20376;-51
2022/05/09 02:59:34;;;;;;;9.27;6.13;;;9.30;99.90;;;;;;6279405;28;20247;-53
2022/05/09 03:02:37;;;;;;;11.03;6.00;;;9.30;99.90;;;;;;6289512;28;20720;-52
2022/05/09 03:05:41;;;;;;;7.03;5.43;;;9.30;99.90;;;;;;6309587;28;20822;-52
2022/05/09 03:08:44;;;;;;;10.93;6.40;;;9.30;99.90;;;;;;6319464;28;20450;-52
2022/05/09 03:11:48;;;;;;;8.17;6.30;;;9.30;99.90;;;;;;6300627;28;20347;-52
2022/05/09 03:14:51;;;;;;;9.73;5.83;;;9.20;99.90;;;;;;6282766;28;20331;-48
2022/05/09 03:17:54;;;;;;;10.17;5.90;;;9.30;99.90;;;;;;6304275;28;20324;-53
2022/05/09 03:20:56;;;;;;;10.23;6.60;;;9.20;99.90;;;;;;6299976;28;20228;-52
2022/05/09 03:23:59;;;;;;;11.87;6.67;;;9.20;99.90;;;;;;6303750;28;20236;-51
2022/05/09 03:27:06;;;;;;;14.87;6.50;;;9.20;99.90;;;;;;6301935;28;20298;-50
2022/05/09 03:30:10;;;;;;;13.07;6.87;;;9.10;99.90;;;;;;6324341;28;20236;-51
2022/05/09 03:33:14;;;;;;;11.73;6.43;;;9.10;99.90;;;;;;6306176;28;20236;-52
2022/05/09 03:36:16;;;;;;;10.57;6.77;;;9.10;99.90;;;;;;6326683;28;20730;-52
2022/05/09 03:39:19;;;;;;;7.70;6.43;;;9.10;99.90;;;;;;6322067;28;20419;-52
2022/05/09 03:42:23;;;;;;;11.87;7.53;;;9.10;99.90;;;;;;6324572;28;20235;-52
2022/05/09 03:45:26;;;;;;;12.03;6.50;;;9.10;99.90;;;;;;6328804;28;20275;-52
2022/05/09 03:48:29;;;;;;;11.77;6.67;;;9.10;99.90;;;;;;6311604;28;20240;-51
2022/05/09 03:51:32;;;;;;;9.60;7.47;;;9.10;99.90;;;;;;6325633;28;20704;-52
2022/05/09 03:54:34;;;;;;;14.03;6.93;;;9.10;99.90;;;;;;6326666;28;20369;-51
2022/05/09 03:57:47;;;;;;;11.60;6.73;;;9.00;99.90;;;;;;6323270;28;20609;-52
2022/05/09 04:00:51;;;;;;;13.83;6.93;;;9.10;99.90;;;;;;6328010;27;20431;-50
2022/05/09 04:03:54;;;;;;;11.30;6.73;;;9.10;99.90;;;;;;6297648;27;20239;-53
2022/05/09 04:06:57;;;;;;;12.50;6.90;;;9.10;99.90;;;;;;6301795;28;20702;-52
2022/05/09 04:10:00;;;;;;;7.97;6.67;;;9.10;99.90;;;;;;6297996;28;20228;-51
2022/05/09 04:13:05;;;;;;;12.57;7.43;;;9.20;99.90;;;;;;6298778;28;20253;-53
2022/05/09 04:19:28;;;;;;;15.10;7.90;;;9.20;99.90;;;;;;6300500;28;20236;-53
2022/05/09 04:22:31;;;;;;;10.07;6.80;;;9.30;99.90;;;;;;6298248;28;20288;-51
2022/05/09 04:25:34;;;;;;;10.70;7.47;;;9.30;99.90;;;;;;6297169;28;20315;-52
2022/05/09 04:28:39;;;;;;;8.23;7.27;;;9.30;99.90;;;;;;6296609;28;20416;-51
2022/05/09 04:31:42;;;;;;;10.07;7.57;;;9.40;99.90;;;;;;6297820;28;20241;-50
2022/05/09 04:34:46;;;;;;;8.20;6.90;;;9.30;99.90;;;;;;6300950;28;20498;-52
2022/05/09 04:37:52;;;;;;;7.80;7.17;;;9.30;99.90;;;;;;6296744;28;20233;-52
2022/05/09 04:40:56;;;;;;;8.23;7.10;;;9.40;99.90;;;;;;6288694;28;20363;-52
2022/05/09 04:44:08;;;;;;;10.10;7.43;;;9.50;99.90;;;;;;6299773;28;20232;-51
2022/05/09 04:47:12;;;;;;;13.90;8.03;;;9.50;99.90;;;;;;6301023;28;20676;-52
2022/05/09 04:50:16;;;;;;;11.80;8.13;;;9.60;99.90;;;;;;6297653;28;20232;-52
2022/05/09 04:53:19;;;;;;;11.63;8.20;;;9.70;99.90;;;;;;6300323;28;20747;-52
2022/05/09 04:56:22;;;;;;;13.70;8.37;;;9.70;99.90;;;;;;6300243;28;20722;-52
2022/05/09 04:59:26;;;;;;;8.30;7.40;;;9.80;99.90;;;;;;6291017;28;20277;-52
2022/05/09 05:02:28;;;;;;;8.00;7.17;;;10.00;99.90;;;;;;6294768;28;20628;-51
2022/05/09 05:05:39;;;;;;;9.13;7.80;;;10.00;99.90;;;;;;6301243;28;20236;-52
2022/05/09 05:08:41;;;;;;;10.63;8.17;;;10.30;99.90;;;;;;6289158;28;20783;-50
2022/05/09 05:11:44;;;;;;;10.07;7.70;;;10.50;99.90;;;;;;6302405;28;20242;-50
2022/05/09 05:14:48;;;;;;;7.87;7.00;;;10.60;99.90;;;;;;6302765;28;20349;-52
2022/05/09 05:17:51;;;;;;;10.47;7.40;;;10.80;99.90;;;;;;6310944;27;20244;-51
2022/05/09 05:20:54;;;;;;;11.83;7.83;;;11.00;99.90;;;;;;6295315;28;20244;-52
2022/05/09 05:23:56;;;;;;;9.53;7.77;;;11.00;99.90;;;;;;6300766;28;20533;-51
2022/05/09 05:26:59;;;;;;;10.40;7.40;;;11.30;99.90;;;;;;6310724;28;20248;-50
2022/05/09 05:30:04;;;;;;;9.93;7.83;;;11.50;99.90;;;;;;6311800;28;20364;-50
2022/05/09 05:33:07;;;;;;;13.03;7.93;;;11.80;99.90;;;;;;6328134;28;20712;-52
2022/05/09 05:36:10;;;;;;;11.03;8.07;;;12.00;99.90;;;;;;6298061;28;20235;-52
2022/05/09 05:39:15;;;;;;;8.20;7.07;;;12.20;99.90;;;;;;6299027;28;20712;-51
2022/05/09 05:42:19;;;;;;;7.97;7.23;;;12.30;99.90;;;;;;6298017;28;20281;-51
2022/05/09 05:45:24;;;;;;;10.33;7.57;;;12.60;99.90;;;;;;6301467;28;20286;-52
2022/05/09 05:48:27;;;;;;;9.63;7.70;;;12.70;99.90;;;;;;6300019;28;20330;-52
2022/05/09 05:51:30;;;;;;;9.17;7.80;;;12.90;99.90;;;;;;6302259;28;21196;-52
2022/05/09 05:54:36;;;;;;;8.83;7.03;;;13.10;99.90;;;;;;6301260;28;20755;-53
2022/05/09 05:57:41;;;;;;;7.47;6.73;;;13.20;99.90;;;;;;6300804;28;20866;-52
2022/05/09 06:00:45;;;;;;;11.07;7.63;;;13.40;99.90;;;;;;6304298;28;20228;-52
2022/05/09 06:03:48;;;;;;;10.40;7.80;;;13.60;99.90;;;;;;6306980;27;20347;-52
2022/05/09 06:06:51;;;;;;;11.20;7.40;;;13.70;99.90;;;;;;6303455;28;20323;-53
2022/05/09 06:09:54;;;;;;;9.43;7.83;;;13.80;99.90;;;;;;6306078;28;20609;-49
2022/05/09 06:12:57;;;;;;;8.03;7.30;;;14.00;99.90;;;;;;6299931;28;20244;-53
2022/05/09 06:16:01;;;;;;;10.47;7.03;;;14.40;96.50;;;;;;6307482;28;20279;-51
2022/05/09 06:19:05;;;;;;;8.10;7.27;;;14.50;94.50;;;;;;6305500;28;20743;-52
2022/05/09 06:22:09;;;;;;;7.30;6.67;;;14.60;93.10;;;;;;6304975;28;20736;-52
2022/05/09 06:25:13;;;;;;;11.60;7.17;;;14.90;91.20;;;;;;6297144;28;20238;-53
2022/05/09 06:28:18;;;;;;;8.37;7.53;;;15.10;87.20;;;;;;6307537;28;20394;-52
2022/05/09 06:31:22;;;;;;;7.93;6.83;;;15.30;82.70;;;;;;6313062;28;20324;-52
2022/05/09 06:34:25;;;;;;;7.30;6.80;;;15.40;77.70;;;;;;6318217;28;20236;-53
2022/05/09 06:37:29;;;;;;;7.30;6.70;;;15.70;78.00;;;;;;6324095;27;20343;-52
2022/05/09 06:40:35;;;;;;;9.17;7.27;;;15.90;78.20;;;;;;6328240;27;20232;-52
2022/05/09 06:43:39;;;;;;;7.70;6.90;;;16.10;74.70;;;;;;6323911;28;20708;-51
2022/05/09 06:46:43;;;;;;;7.60;6.73;;;16.30;67.20;;;;;;6332235;27;20266;-52
2022/05/09 06:49:46;;;;;;;8.07;7.27;;;16.40;74.30;;;;;;6331460;28;20700;-53
2022/05/09 06:52:49;;;;;;;8.27;6.93;;;16.50;64.30;;;;;;6304728;28;20239;-53
2022/05/09 06:56:12;;;;;;;8.10;7.17;;;16.60;62.50;;;;;;6299366;28;20603;-52
2022/05/09 06:59:15;;;;;;;8.13;7.03;;;16.60;62.00;;;;;;6304495;28;20429;-53
2022/05/09 07:02:19;;;;;;;7.17;6.57;;;16.50;60.60;;;;;;6302602;28;20309;-53
2022/05/09 07:05:22;;;;;;;7.93;7.17;;;16.70;57.20;;;;;;6304098;28;20739;-53
2022/05/09 07:08:32;;;;;;;7.60;6.90;;;16.50;61.20;;;;;;6302203;28;20333;-52
2022/05/09 07:11:34;;;;;;;7.60;6.80;;;16.70;60.40;;;;;;6303179;28;20233;-53
2022/05/09 07:14:37;;;;;;;8.07;6.87;;;16.80;58.30;;;;;;6296327;28;20792;-52
2022/05/09 07:17:41;;;;;;;7.07;6.50;;;16.80;59.50;;;;;;6293929;28;20716;-51
2022/05/09 07:20:44;;;;;;;8.83;6.67;;;16.80;55.80;;;;;;6306374;28;20225;-51
2022/05/09 07:23:47;;;;;;;7.50;6.80;;;16.70;57.60;;;;;;6302921;28;20240;-52
2022/05/09 07:26:56;;;;;;;8.10;6.80;;;16.70;57.10;;;;;;6301756;28;20237;-52
2022/05/09 07:29:58;;;;;;;9.57;6.70;;;16.60;67.90;;;;;;6297043;28;20263;-52
2022/05/09 07:33:07;;;;;;;9.00;7.10;;;16.60;60.00;;;;;;6304361;28;20645;-52
2022/05/09 07:36:09;;;;;;;9.33;7.10;;;16.60;62.70;;;;;;6302661;28;20297;-52
2022/05/09 07:39:12;;;;;;;7.93;7.13;;;16.50;66.30;;;;;;6295714;28;20795;-51
2022/05/09 07:42:15;;;;;;;15.97;7.70;;;16.50;63.30;;;;;;6301068;28;20228;-53
2022/05/09 07:45:20;;;;;;;10.87;7.43;;;16.50;67.00;;;;;;6323363;28;20324;-52
2022/05/09 07:48:26;;;;;;;10.10;7.80;;;16.60;56.00;;;;;;6313288;28;20403;-52
2022/05/09 07:51:31;;;;;;;8.63;7.73;;;16.60;61.70;;;;;;6297145;28;20497;-53
2022/05/09 07:54:33;;;;;;;8.10;7.40;;;16.60;59.70;;;;;;6300239;28;20232;-52
2022/05/09 07:57:36;;;;;;;8.03;7.23;;;16.60;55.50;;;;;;6323428;28;20240;-53
2022/05/09 08:00:40;;;;;;;9.60;7.47;;;16.70;55.90;;;;;;6302837;28;20224;-53
2022/05/09 08:03:44;;;;;;;11.07;7.40;;;16.60;59.20;;;;;;6298443;28;20640;-51
2022/05/09 08:06:49;;;;;;;9.43;6.67;;;16.40;55.80;;;;;;6303234;28;20237;-52
2022/05/09 08:09:52;;;;;;;11.33;7.03;;;16.50;55.70;;;;;;6294081;28;20252;-52
2022/05/09 08:12:55;;;;;;;8.20;7.40;;;16.50;55.60;;;;;;6316112;28;20304;-52
2022/05/09 08:15:59;;;;;;;7.07;6.50;;;16.50;60.10;;;;;;6316181;28;20247;-55
2022/05/09 08:19:04;;;;;;;10.23;8.27;;;16.50;55.90;;;;;;6299877;28;20244;-53
2022/05/09 08:22:07;;;;;;;11.43;7.30;;;16.60;56.00;;;;;;6304839;28;20772;-53
2022/05/09 08:25:21;;;;;;;7.60;6.90;;;16.60;54.40;;;;;;6321183;27;20263;-53
2022/05/09 08:28:24;;;;;;;10.57;6.83;;;16.80;47.90;;;;;;6297748;28;20313;-53
2022/05/09 08:31:27;;;;;;;8.07;7.27;;;16.80;50.20;;;;;;6304723;28;20834;-53
2022/05/09 08:34:34;;;;;;;12.23;7.03;;;16.90;51.40;;;;;;6304275;28;20228;-52
2022/05/09 08:37:37;;;;;;;8.70;7.30;;;17.00;51.80;;;;;;6303126;28;20245;-53
2022/05/09 08:40:49;;;;;;;10.90;7.03;;;17.20;48.10;;;;;;6309979;28;20293;-53
2022/05/09 08:44:09;;;;;;;8.57;7.20;;;17.50;39.70;;;;;;6303511;28;20735;-52
2022/05/09 08:47:38;;;;;;;7.60;6.93;;;17.40;40.40;;;;;;6287000;28;20293;-53
2022/05/09 08:50:55;;;;;;;13.87;7.50;;;17.40;46.90;;;;;;6310021;28;20263;-52
2022/05/09 08:54:03;;;;;;;8.23;7.27;;;17.60;43.60;;;;;;6291963;28;20262;-53
2022/05/09 08:57:12;;;;;;;6.63;6.03;;;17.70;41.30;;;;;;6300288;28;20331;-53
2022/05/09 09:00:18;;;;;;;6.50;5.87;;;17.80;39.80;;;;;;6304452;28;20232;-52
2022/05/09 09:03:28;;;;;;;6.07;5.40;;;18.00;31.90;;;;;;6295788;28;20236;-54
2022/05/09 09:07:01;;;;;;;6.23;5.60;;;18.10;29.20;;;;;;6303378;28;20233;-53
2022/05/09 09:10:14;;;;;;;10.27;5.90;;;18.40;22.70;;;;;;6295338;28;20240;-53
2022/05/09 09:13:31;;;;;;;7.57;5.60;;;18.40;19.90;;;;;;6302764;28;20248;-53
2022/05/09 09:16:56;;;;;;;7.23;5.70;;;18.40;21.50;;;;;;6327149;28;20751;-52
2022/05/09 09:20:17;;;;;;;7.53;5.07;;;18.40;25.70;;;;;;6324783;28;20240;-54
2022/05/09 09:23:38;;;;;;;9.43;4.90;;;18.60;19.30;;;;;;6303524;28;20484;-53
2022/05/09 09:26:54;;;;;;;5.87;5.27;;;18.70;19.40;;;;;;6294753;28;20241;-53
2022/05/09 09:30:01;;;;;;;10.13;5.50;;;18.80;19.50;;;;;;6302762;28;20467;-56
2022/05/09 09:33:06;;;;;;;5.93;5.37;;;19.00;19.60;;;;;;6303764;27;20244;-54
2022/05/09 09:36:12;;;;;;;9.93;6.07;;;19.10;22.10;;;;;;6326305;28;20769;-53
2022/05/09 09:39:20;;;;;;;6.07;5.13;;;19.20;19.90;;;;;;6301909;28;20699;-53
2022/05/09 09:42:27;;;;;;;5.30;4.90;;;19.30;19.80;;;;;;6304115;28;20434;-53
2022/05/09 09:45:32;;;;;;;9.73;4.40;;;19.30;19.80;;;;;;6298676;28;20736;-53
2022/05/09 09:48:35;;;;;;;7.53;4.30;;;19.40;19.90;;;;;;6298167;28;20239;-54
2022/05/09 09:51:49;;;;;;;5.43;3.70;;;19.40;12.60;;;;;;6302733;28;20267;-52
2022/05/09 09:54:58;;;;;;;4.77;4.07;;;19.40;13.60;;;;;;6301672;28;20259;-54
2022/05/09 09:58:21;;;;;;;8.10;4.40;;;19.40;19.50;;;;;;6300796;28;20404;-52
2022/05/09 10:01:26;;;;;;;4.53;4.13;;;19.50;20.00;;;;;;6312081;28;20321;-54
2022/05/09 10:04:31;;;;;;;9.27;4.57;;;19.60;20.00;;;;;;6298549;28;20238;-54
2022/05/09 10:07:35;;;;;;;5.13;4.13;;;19.60;13.60;;;;;;6301453;28;20237;-54
2022/05/09 10:10:55;;;;;;;7.73;4.63;;;19.70;16.80;;;;;;6294626;28;20233;-55
2022/05/09 10:14:00;;;;;;;4.70;4.30;;;19.70;13.20;;;;;;6297978;28;20239;-52
2022/05/09 10:17:19;;;;;;;5.73;4.23;;;19.80;14.00;;;;;;6299687;28;20247;-54
2022/05/09 10:20:43;;;;;;;5.90;4.23;;;19.90;14.50;;;;;;6307209;28;20697;-53
2022/05/09 10:27:27;;;;;;;4.10;3.73;;;19.90;9.80;;;;;;6308886;28;20293;-52
2022/05/09 10:30:34;;;;;;;5.57;3.83;;;19.90;3.80;;;;;;6313216;28;20243;-53
2022/05/09 10:33:44;;;;;;;5.97;4.03;;;20.00;5.70;;;;;;6302803;28;20233;-52
2022/05/09 10:36:52;;;;;;;4.50;3.93;;;20.00;5.00;;;;;;6325055;28;20505;-54
2022/05/09 10:40:05;;;;;;;5.03;4.10;;;20.00;1.00;;;;;;6329492;28;20724;-53
2022/05/09 10:43:12;;;;;;;5.27;3.60;;;20.10;1.80;;;;;;6297827;28;20684;-53
2022/05/09 10:46:20;;;;;;;6.50;3.93;;;20.20;4.60;;;;;;6332558;28;20799;-52
2022/05/09 10:49:33;;;;;;;4.30;3.80;;;20.40;3.20;;;;;;6327917;27;20233;-54
2022/05/09 10:52:42;;;;;;;8.17;4.77;;;20.60;3.10;;;;;;6328266;28;20285;-53
2022/05/09 10:55:49;;;;;;;9.90;3.93;;;20.60;1.00;;;;;;6296029;28;20323;-52
2022/05/09 10:59:02;;;;;;;6.80;4.60;;;20.50;1.10;;;;;;6304621;28;20332;-53
2022/05/09 11:02:11;;;;;;;4.30;4.00;;;20.50;1.00;;;;;;6299075;28;20338;-56
2022/05/09 11:05:14;;;;;;;5.17;4.10;;;20.50;1.20;;;;;;6299473;28;20260;-54
2022/05/09 11:08:27;;;;;;;6.30;4.10;;;20.40;1.00;;;;;;6315585;28;20232;-57
2022/05/09 11:11:35;;;;;;;4.33;3.93;;;20.50;1.00;;;;;;6301471;28;20262;-53
2022/05/09 11:14:58;;;;;;;6.53;4.30;;;20.60;1.00;;;;;;6301769;28;20307;-54
2022/05/09 11:18:26;;;;;;;4.07;3.67;;;20.40;1.00;;;;;;6308311;28;20236;-54
2022/05/09 11:21:41;;;;;;;4.90;3.87;;;20.60;1.00;;;;;;6300035;28;20923;-52
2022/05/09 11:25:01;;;;;;;8.53;4.30;;;20.70;1.00;;;;;;6304685;28;25653;-53
2022/05/09 11:28:17;;;;;;;5.13;3.97;;;20.80;1.00;;;;;;6296405;28;20233;-52
2022/05/09 11:31:28;;;;;;;4.10;3.70;;;20.80;1.00;;;;;;6311433;28;20252;-52
2022/05/09 11:35:08;;;;;;;3.97;3.77;;;20.80;1.00;;;;;;6324703;28;20301;-52
2022/05/09 11:38:39;;;;;;;3.67;3.37;;;20.80;1.00;;;;;;6306490;28;20239;-53
2022/05/09 11:41:52;;;;;;;9.70;3.57;;;20.90;1.00;;;;;;6300412;28;20458;-53
2022/05/09 11:45:03;;;;;;;5.83;4.00;;;21.00;1.00;;;;;;6323345;28;20232;-55
2022/05/09 11:48:22;;;;;;;4.03;3.73;;;21.10;1.00;;;;;;6315427;28;20423;-51
2022/05/09 11:51:32;;;;;;;6.30;3.53;;;21.20;1.00;;;;;;6315143;27;20228;-53
2022/05/09 11:54:40;;;;;;;6.53;3.77;;;21.20;1.00;;;;;;6308772;28;20292;-53
2022/05/09 11:57:45;;;;;;;4.57;3.77;;;21.30;1.00;;;;;;6320817;28;20324;-53
2022/05/09 12:00:56;;;;;;;3.77;3.53;;;21.50;1.00;;;;;;6317572;28;20239;-53
2022/05/09 12:04:01;;;;;;;5.03;3.33;;;21.60;1.00;;;;;;6322869;28;20307;-52
2022/05/09 12:07:37;;;;;;;4.53;3.80;;;21.70;1.00;;;;;;6327982;27;20244;-54
2022/05/09 12:10:45;;;;;;;5.20;3.43;;;21.70;1.00;;;;;;6292820;28;20236;-52
2022/05/09 12:13:50;;;;;;;4.23;3.50;;;21.70;1.00;;;;;;6319271;28;20712;-52
2022/05/09 12:16:54;;;;;;;6.37;3.40;;;21.80;1.00;;;;;;6329386;28;20236;-53
2022/05/09 12:20:00;;;;;;;3.30;3.10;;;21.80;1.00;;;;;;6308433;28;20236;-52
2022/05/09 12:23:33;;;;;;;3.77;3.27;;;21.80;1.00;;;;;;6305663;28;20386;-53
2022/05/09 12:26:39;;;;;;;4.73;4.07;;;21.80;1.00;;;;;;6298288;28;20324;-53
2022/05/09 12:29:52;;;;;;;3.80;3.60;;;21.80;1.00;;;;;;6300466;28;20317;-52
2022/05/09 12:32:55;;;;;;;3.60;3.30;;;21.90;1.00;;;;;;6302440;28;20316;-52
2022/05/09 12:36:03;;;;;;;5.53;3.53;;;21.90;1.00;;;;;;6324863;28;20231;-53
2022/05/09 12:39:12;;;;;;;4.03;3.60;;;21.80;1.00;;;;;;6301240;28;20287;-52
2022/05/09 12:42:40;;;;;;;6.30;3.30;;;21.80;1.00;;;;;;6306037;28;20232;-52
2022/05/09 12:45:46;;;;;;;3.77;3.23;;;21.80;1.00;;;;;;6310269;28;20712;-53
2022/05/09 12:48:50;;;;;;;3.30;3.10;;;21.80;1.00;;;;;;6301472;28;20591;-52
2022/05/09 12:51:56;;;;;;;8.60;4.20;;;21.90;1.00;;;;;;6302853;28;20688;-52
2022/05/09 12:58:25;;;;;;;4.90;3.70;;;22.00;1.00;;;;;;6297301;28;20270;-53
2022/05/09 13:01:28;;;;;;;5.13;4.07;;;22.00;1.00;;;;;;6310666;28;20237;-52
2022/05/09 13:04:59;;;;;;;5.20;3.93;;;21.90;1.00;;;;;;6302057;28;20237;-51
2022/05/09 13:08:03;;;;;;;4.90;3.43;;;21.80;1.00;;;;;;6295747;28;20240;-52
2022/05/09 13:11:14;;;;;;;4.87;4.20;;;21.80;1.00;;;;;;6304220;28;20667;-53
2022/05/09 13:14:24;;;;;;;3.77;3.50;;;21.80;1.00;;;;;;6299987;28;20805;-51
2022/05/09 13:17:33;;;;;;;6.33;4.00;;;21.70;1.00;;;;;;6328725;28;20398;-52
2022/05/09 13:20:47;;;;;;;4.80;4.37;;;21.80;1.00;;;;;;6328096;27;20224;-52
2022/05/09 13:23:53;;;;;;;4.40;4.00;;;21.80;1.00;;;;;;6325283;28;20277;-53
2022/05/09 13:26:58;;;;;;;3.90;3.70;;;22.00;1.00;;;;;;6309403;28;20232;-50
2022/05/09 13:30:06;;;;;;;7.73;4.27;;;22.10;1.00;;;;;;6310423;28;20341;-54
2022/05/09 13:33:16;;;;;;;4.57;4.30;;;22.10;1.00;;;;;;6295033;28;20240;-54
2022/05/09 13:36:25;;;;;;;6.23;4.00;;;22.20;1.00;;;;;;6302606;28;20233;-52
2022/05/09 13:39:31;;;;;;;3.87;3.57;;;22.40;1.00;;;;;;6301074;28;20390;-52
2022/05/09 13:42:39;;;;;;;8.37;4.33;;;22.50;1.00;;;;;;6296384;28;20361;-52
2022/05/09 13:45:43;;;;;;;4.93;4.63;;;22.50;1.00;;;;;;6305510;28;20608;-50
2022/05/09 13:48:51;;;;;;;6.07;4.30;;;22.50;1.00;;;;;;6326974;27;20307;-53
2022/05/09 13:52:08;;;;;;;5.23;4.30;;;22.50;1.00;;;;;;6311221;28;20316;-53
2022/05/09 13:55:12;;;;;;;4.77;4.20;;;22.50;1.00;;;;;;6287237;28;20256;-51
2022/05/09 13:58:19;;;;;;;4.37;4.07;;;22.50;1.00;;;;;;6294797;28;20556;-53
2022/05/09 14:01:26;;;;;;;5.73;4.30;;;22.50;1.00;;;;;;6307047;28;20231;-52
2022/05/09 14:04:30;;;;;;;5.30;4.20;;;22.50;1.00;;;;;;6301319;28;20285;-53
2022/05/09 14:07:41;;;;;;;6.13;4.40;;;22.50;1.00;;;;;;6300903;28;20740;-54
2022/05/09 14:10:46;;;;;;;5.80;4.37;;;22.40;1.00;;;;;;6301658;28;20247;-53
2022/05/09 14:13:50;;;;;;;5.47;4.40;;;22.40;1.00;;;;;;6309720;27;20335;-52
2022/05/09 14:17:00;;;;;;;4.30;3.93;;;22.30;1.00;;;;;;6320577;27;20243;-54
2022/05/09 14:20:07;;;;;;;8.20;3.77;;;22.40;1.00;;;;;;6298446;28;20233;-54
2022/05/09 14:23:17;;;;;;;3.97;3.77;;;22.50;1.00;;;;;;6304610;28;20232;-52
2022/05/09 14:29:51;;;;;;;6.67;4.30;;;22.60;1.00;;;;;;6306043;28;20396;-52
2022/05/09 14:32:55;;;;;;;4.87;4.43;;;22.50;1.00;;;;;;6310236;28;20665;-53
2022/05/09 14:35:58;;;;;;;4.33;3.97;;;22.60;1.00;;;;;;6298554;28;20634;-52
2022/05/09 14:39:04;;;;;;;7.20;4.37;;;22.60;1.00;;;;;;6310156;28;20331;-52
2022/05/09 14:42:13;;;;;;;7.37;4.23;;;22.70;1.00;;;;;;6327194;28;20326;-57
2022/05/09 14:45:19;;;;;;;5.03;4.10;;;22.60;1.00;;;;;;6330086;28;20319;-54
2022/05/09 14:48:25;;;;;;;6.07;4.43;;;22.80;1.00;;;;;;6284371;28;20320;-54
2022/05/09 14:51:31;;;;;;;5.70;4.37;;;22.80;1.00;;;;;;6330275;27;20296;-53
2022/05/09 14:54:42;;;;;;;4.23;4.03;;;22.90;1.00;;;;;;6313222;27;20394;-52
2022/05/09 14:57:49;;;;;;;4.13;3.80;;;23.00;1.00;;;;;;6298482;28;20241;-52
2022/05/09 15:01:02;;;;;;;3.93;3.70;;;22.90;1.00;;;;;;6305811;28;20303;-52
2022/05/09 15:04:17;;;;;;;6.97;4.37;;;22.80;1.00;;;;;;6298468;28;20239;-51
2022/05/09 15:07:20;;;;;;;4.30;3.97;;;22.70;1.00;;;;;;6303581;28;20241;-53
2022/05/09 15:10:28;;;;;;;4.70;4.43;;;22.70;1.00;;;;;;6293551;28;20240;-52
2022/05/09 15:13:35;;;;;;;4.73;4.10;;;22.80;1.00;;;;;;6299334;28;20232;-53
2022/05/09 15:16:45;;;;;;;4.47;4.17;;;22.90;1.00;;;;;;6305461;28;20319;-53
2022/05/09 15:19:49;;;;;;;6.83;4.47;;;23.00;1.00;;;;;;6306255;28;20503;-52
2022/05/09 15:22:52;;;;;;;4.03;3.73;;;22.90;1.00;;;;;;6302654;28;20327;-52
2022/05/09 15:25:58;;;;;;;4.40;4.00;;;22.90;1.00;;;;;;6301616;28;20794;-52
2022/05/09 15:29:01;;;;;;;4.50;4.20;;;22.90;1.00;;;;;;6302530;28;20374;-53
2022/05/09 15:32:16;;;;;;;4.57;4.17;;;23.00;1.00;;;;;;6310877;27;20634;-53
2022/05/09 15:35:21;;;;;;;4.90;4.00;;;22.90;1.00;;;;;;6314156;28;20729;-53
2022/05/09 15:38:23;;;;;;;4.73;4.13;;;22.90;1.00;;;;;;6307002;28;20327;-53
2022/05/09 15:41:31;;;;;;;5.30;4.20;;;22.90;1.00;;;;;;6304953;28;20224;-53
2022/05/09 15:44:35;;;;;;;4.53;4.13;;;22.90;1.00;;;;;;6325686;27;20299;-54
2022/05/09 15:47:40;;;;;;;4.33;4.00;;;22.80;1.00;;;;;;6303278;28;20377;-52
2022/05/09 15:50:48;;;;;;;4.17;3.83;;;22.60;1.00;;;;;;6299657;28;20229;-53
2022/05/09 15:53:51;;;;;;;8.03;4.20;;;22.70;1.00;;;;;;6290674;28;20305;-52
2022/05/09 15:56:54;;;;;;;5.57;4.27;;;22.60;1.00;;;;;;6296170;28;20236;-52
2022/05/09 16:00:01;;;;;;;4.40;4.03;;;22.70;1.00;;;;;;6310658;28;20305;-53
2022/05/09 16:03:13;;;;;;;5.63;4.40;;;22.60;1.00;;;;;;6321955;28;20236;-53
2022/05/09 16:13:03;;;;;;;4.93;4.03;;;22.50;1.00;;;;;;6315914;27;20353;-54
2022/05/09 16:16:06;;;;;;;4.47;4.07;;;22.50;1.00;;;;;;6308548;28;20332;-53
2022/05/09 16:19:13;;;;;;;4.73;4.20;;;22.50;1.00;;;;;;6314916;28;20461;-54
2022/05/09 16:22:20;;;;;;;5.73;4.03;;;22.30;1.00;;;;;;6307969;28;20236;-54
2022/05/09 16:25:23;;;;;;;3.93;3.80;;;22.20;1.00;;;;;;6299836;28;20324;-53
2022/05/09 16:28:28;;;;;;;4.93;4.00;;;22.00;1.00;;;;;;6299202;28;20713;-54
2022/05/09 16:31:31;;;;;;;4.37;4.10;;;21.90;1.00;;;;;;6303624;28;20548;-53
2022/05/09 16:34:37;;;;;;;4.63;4.20;;;21.80;1.00;;;;;;6305479;28;20274;-53
2022/05/09 16:37:44;;;;;;;5.80;5.00;;;21.70;1.00;;;;;;6302968;28;20232;-52
2022/05/09 16:40:47;;;;;;;3.83;3.63;;;21.60;1.00;;;;;;6300582;28;20248;-54
2022/05/09 16:43:50;;;;;;;4.83;4.40;;;21.40;1.00;;;;;;6297390;28;20954;-53